Terminal Aerodrome Forecast
Issued by NWS Missoula, MT

Home | Current Version | Previous Version | Text Only | Print | Product List | Glossary On
Versions: 1 2 3 4 5 6 7 8 9 10 11 12 13 14 15
000
FTUS45 KMSO 072320
TAFMSO
TAF
KMSO 072320Z 0800/0824 36011G20KT P6SM -SHRA VCTS SCT040 BKN060CB
     FM080300 02011KT P6SM VCSH SCT050 BKN080
     FM080600 11008KT P6SM SCT080=

USA.gov is the U.S. government's official web portal to all federal, state and local government web resources and services.